sensor_id;sensor_type;location;lat;lon;timestamp;P1;durP1;ratioP1;P2;durP2;ratioP2
14076;SDS011;7114;51.100;13.998;2024-03-23T00:52:24;11.73;;;4.47;;
14076;SDS011;7114;51.100;13.998;2024-03-23T00:54:50;10.57;;;4.47;;
14076;SDS011;7114;51.100;13.998;2024-03-23T00:57:17;10.48;;;4.60;;
14076;SDS011;7114;51.100;13.998;2024-03-23T00:59:42;11.80;;;4.40;;
14076;SDS011;7114;51.100;13.998;2024-03-23T01:02:08;11.05;;;4.57;;
14076;SDS011;7114;51.100;13.998;2024-03-23T01:04:34;9.97;;;4.63;;
14076;SDS011;7114;51.100;13.998;2024-03-23T01:07:00;12.07;;;4.90;;
14076;SDS011;7114;51.100;13.998;2024-03-23T01:09:27;11.27;;;4.77;;
14076;SDS011;7114;51.100;13.998;2024-03-23T01:11:53;13.27;;;5.05;;
14076;SDS011;7114;51.100;13.998;2024-03-23T01:14:19;12.00;;;5.07;;
14076;SDS011;7114;51.100;13.998;2024-03-23T01:16:45;11.83;;;4.87;;
14076;SDS011;7114;51.100;13.998;2024-03-23T01:19:11;10.70;;;4.75;;
14076;SDS011;7114;51.100;13.998;2024-03-23T01:21:37;11.53;;;4.90;;
14076;SDS011;7114;51.100;13.998;2024-03-23T01:24:02;12.05;;;4.97;;
14076;SDS011;7114;51.100;13.998;2024-03-23T01:26:30;12.07;;;4.83;;
14076;SDS011;7114;51.100;13.998;2024-03-23T01:28:56;11.43;;;4.78;;
14076;SDS011;7114;51.100;13.998;2024-03-23T01:31:22;11.70;;;5.15;;
14076;SDS011;7114;51.100;13.998;2024-03-23T01:33:47;11.77;;;4.90;;
14076;SDS011;7114;51.100;13.998;2024-03-23T01:36:14;14.25;;;5.97;;
14076;SDS011;7114;51.100;13.998;2024-03-23T01:38:39;12.53;;;5.60;;
14076;SDS011;7114;51.100;13.998;2024-03-23T01:41:05;13.23;;;5.45;;
14076;SDS011;7114;51.100;13.998;2024-03-23T01:43:32;13.17;;;6.00;;
14076;SDS011;7114;51.100;13.998;2024-03-23T01:45:59;14.20;;;5.25;;
14076;SDS011;7114;51.100;13.998;2024-03-23T01:48:25;13.00;;;5.90;;
14076;SDS011;7114;51.100;13.998;2024-03-23T01:50:52;16.00;;;6.10;;
14076;SDS011;7114;51.100;13.998;2024-03-23T01:53:18;13.35;;;6.03;;
14076;SDS011;7114;51.100;13.998;2024-03-23T01:55:46;13.60;;;6.00;;
14076;SDS011;7114;51.100;13.998;2024-03-23T01:58:12;15.77;;;6.80;;
14076;SDS011;7114;51.100;13.998;2024-03-23T02:00:40;14.30;;;6.43;;
14076;SDS011;7114;51.100;13.998;2024-03-23T02:05:50;15.57;;;6.83;;
14076;SDS011;7114;51.100;13.998;2024-03-23T02:08:16;16.08;;;7.68;;
14076;SDS011;7114;51.100;13.998;2024-03-23T02:10:43;15.32;;;6.90;;
14076;SDS011;7114;51.100;13.998;2024-03-23T02:13:09;16.80;;;7.33;;
14076;SDS011;7114;51.100;13.998;2024-03-23T02:15:35;15.40;;;6.70;;
14076;SDS011;7114;51.100;13.998;2024-03-23T02:18:02;15.97;;;7.63;;
14076;SDS011;7114;51.100;13.998;2024-03-23T02:20:28;19.67;;;7.53;;
14076;SDS011;7114;51.100;13.998;2024-03-23T02:22:55;16.97;;;7.20;;
14076;SDS011;7114;51.100;13.998;2024-03-23T02:25:21;17.50;;;7.30;;
14076;SDS011;7114;51.100;13.998;2024-03-23T02:27:47;16.63;;;7.13;;
14076;SDS011;7114;51.100;13.998;2024-03-23T02:30:13;16.45;;;7.70;;
14076;SDS011;7114;51.100;13.998;2024-03-23T02:32:39;16.93;;;7.43;;
14076;SDS011;7114;51.100;13.998;2024-03-23T02:35:05;17.38;;;7.65;;
14076;SDS011;7114;51.100;13.998;2024-03-23T02:37:31;17.20;;;7.50;;
14076;SDS011;7114;51.100;13.998;2024-03-23T02:39:59;17.35;;;7.40;;
14076;SDS011;7114;51.100;13.998;2024-03-23T02:42:24;19.90;;;8.32;;
14076;SDS011;7114;51.100;13.998;2024-03-23T02:44:51;16.85;;;7.57;;
14076;SDS011;7114;51.100;13.998;2024-03-23T02:47:16;18.07;;;7.77;;
14076;SDS011;7114;51.100;13.998;2024-03-23T02:49:42;17.00;;;8.10;;
14076;SDS011;7114;51.100;13.998;2024-03-23T02:52:08;16.80;;;7.57;;
14076;SDS011;7114;51.100;13.998;2024-03-23T02:54:34;19.08;;;7.45;;
14076;SDS011;7114;51.100;13.998;2024-03-23T02:57:01;18.20;;;8.33;;
14076;SDS011;7114;51.100;13.998;2024-03-23T02:59:27;20.48;;;8.20;;
14076;SDS011;7114;51.100;13.998;2024-03-23T03:01:53;18.17;;;7.40;;
14076;SDS011;7114;51.100;13.998;2024-03-23T03:04:19;16.95;;;7.57;;
14076;SDS011;7114;51.100;13.998;2024-03-23T03:06:46;13.70;;;5.90;;
14076;SDS011;7114;51.100;13.998;2024-03-23T03:09:12;12.95;;;5.80;;
14076;SDS011;7114;51.100;13.998;2024-03-23T03:11:38;12.53;;;5.27;;
14076;SDS011;7114;51.100;13.998;2024-03-23T03:14:05;14.82;;;6.03;;
14076;SDS011;7114;51.100;13.998;2024-03-23T03:16:32;15.48;;;6.10;;
14076;SDS011;7114;51.100;13.998;2024-03-23T03:18:59;15.70;;;6.28;;
14076;SDS011;7114;51.100;13.998;2024-03-23T03:21:25;14.67;;;5.53;;
14076;SDS011;7114;51.100;13.998;2024-03-23T03:23:52;15.55;;;6.40;;
14076;SDS011;7114;51.100;13.998;2024-03-23T03:26:17;16.47;;;6.50;;
14076;SDS011;7114;51.100;13.998;2024-03-23T03:28:44;15.27;;;6.15;;
14076;SDS011;7114;51.100;13.998;2024-03-23T03:31:14;14.68;;;6.40;;
14076;SDS011;7114;51.100;13.998;2024-03-23T03:33:41;15.25;;;5.90;;
14076;SDS011;7114;51.100;13.998;2024-03-23T03:36:07;15.03;;;6.40;;
14076;SDS011;7114;51.100;13.998;2024-03-23T03:38:33;17.30;;;7.30;;
14076;SDS011;7114;51.100;13.998;2024-03-23T03:41:00;16.90;;;6.78;;
14076;SDS011;7114;51.100;13.998;2024-03-23T03:43:26;17.35;;;6.60;;
14076;SDS011;7114;51.100;13.998;2024-03-23T03:45:52;17.07;;;6.90;;
14076;SDS011;7114;51.100;13.998;2024-03-23T03:48:20;15.10;;;6.40;;
14076;SDS011;7114;51.100;13.998;2024-03-23T03:50:45;14.77;;;6.03;;
14076;SDS011;7114;51.100;13.998;2024-03-23T03:53:11;15.55;;;6.55;;
14076;SDS011;7114;51.100;13.998;2024-03-23T03:55:37;15.17;;;6.57;;
14076;SDS011;7114;51.100;13.998;2024-03-23T03:58:03;14.13;;;6.10;;
14076;SDS011;7114;51.100;13.998;2024-03-23T04:00:29;14.37;;;6.33;;
14076;SDS011;7114;51.100;13.998;2024-03-23T04:02:56;15.43;;;6.35;;
14076;SDS011;7114;51.100;13.998;2024-03-23T04:05:22;19.08;;;6.30;;
14076;SDS011;7114;51.100;13.998;2024-03-23T04:07:49;17.33;;;6.37;;
14076;SDS011;7114;51.100;13.998;2024-03-23T04:10:14;15.98;;;6.20;;
14076;SDS011;7114;51.100;13.998;2024-03-23T04:12:41;14.20;;;5.95;;
14076;SDS011;7114;51.100;13.998;2024-03-23T04:15:07;13.33;;;5.70;;
14076;SDS011;7114;51.100;13.998;2024-03-23T04:17:33;13.93;;;5.00;;
14076;SDS011;7114;51.100;13.998;2024-03-23T04:19:59;14.73;;;6.18;;
14076;SDS011;7114;51.100;13.998;2024-03-23T04:22:27;15.10;;;6.07;;
14076;SDS011;7114;51.100;13.998;2024-03-23T04:24:53;15.70;;;6.30;;
14076;SDS011;7114;51.100;13.998;2024-03-23T04:27:19;14.43;;;6.13;;
14076;SDS011;7114;51.100;13.998;2024-03-23T04:29:46;16.77;;;6.53;;
14076;SDS011;7114;51.100;13.998;2024-03-23T04:32:13;16.55;;;6.63;;
14076;SDS011;7114;51.100;13.998;2024-03-23T04:34:39;17.52;;;7.00;;
14076;SDS011;7114;51.100;13.998;2024-03-23T04:37:05;16.10;;;6.43;;
14076;SDS011;7114;51.100;13.998;2024-03-23T04:39:32;15.32;;;6.68;;
14076;SDS011;7114;51.100;13.998;2024-03-23T04:41:58;16.60;;;7.70;;
14076;SDS011;7114;51.100;13.998;2024-03-23T04:44:26;18.73;;;7.53;;
14076;SDS011;7114;51.100;13.998;2024-03-23T04:46:52;19.40;;;7.65;;
14076;SDS011;7114;51.100;13.998;2024-03-23T04:49:18;19.55;;;7.90;;
14076;SDS011;7114;51.100;13.998;2024-03-23T04:51:45;20.58;;;8.85;;
14076;SDS011;7114;51.100;13.998;2024-03-23T04:54:11;20.08;;;8.48;;
14076;SDS011;7114;51.100;13.998;2024-03-23T04:56:39;16.20;;;7.20;;
14076;SDS011;7114;51.100;13.998;2024-03-23T04:59:05;17.48;;;7.20;;
14076;SDS011;7114;51.100;13.998;2024-03-23T05:01:31;15.00;;;6.28;;
14076;SDS011;7114;51.100;13.998;2024-03-23T05:03:57;13.90;;;6.33;;
14076;SDS011;7114;51.100;13.998;2024-03-23T05:06:23;18.73;;;7.57;;
14076;SDS011;7114;51.100;13.998;2024-03-23T05:08:48;18.70;;;7.93;;
14076;SDS011;7114;51.100;13.998;2024-03-23T05:11:15;21.02;;;8.45;;
14076;SDS011;7114;51.100;13.998;2024-03-23T05:13:42;23.70;;;9.23;;
14076;SDS011;7114;51.100;13.998;2024-03-23T05:16:08;22.92;;;9.35;;
14076;SDS011;7114;51.100;13.998;2024-03-23T05:18:34;23.60;;;9.50;;
14076;SDS011;7114;51.100;13.998;2024-03-23T05:21:00;21.63;;;9.30;;
14076;SDS011;7114;51.100;13.998;2024-03-23T05:23:26;19.73;;;8.35;;
14076;SDS011;7114;51.100;13.998;2024-03-23T05:25:54;19.52;;;8.32;;
14076;SDS011;7114;51.100;13.998;2024-03-23T05:28:20;21.13;;;8.27;;
14076;SDS011;7114;51.100;13.998;2024-03-23T05:30:51;18.05;;;7.30;;
14076;SDS011;7114;51.100;13.998;2024-03-23T05:33:17;17.90;;;7.70;;
14076;SDS011;7114;51.100;13.998;2024-03-23T05:35:44;18.10;;;7.82;;
14076;SDS011;7114;51.100;13.998;2024-03-23T05:38:09;17.53;;;7.47;;
14076;SDS011;7114;51.100;13.998;2024-03-23T05:40:35;16.92;;;7.53;;
14076;SDS011;7114;51.100;13.998;2024-03-23T05:43:02;19.80;;;7.73;;
14076;SDS011;7114;51.100;13.998;2024-03-23T05:45:29;16.77;;;7.78;;
14076;SDS011;7114;51.100;13.998;2024-03-23T05:47:55;18.60;;;7.73;;
14076;SDS011;7114;51.100;13.998;2024-03-23T05:50:22;16.45;;;7.43;;
14076;SDS011;7114;51.100;13.998;2024-03-23T05:52:48;17.40;;;7.43;;
14076;SDS011;7114;51.100;13.998;2024-03-23T05:55:15;15.43;;;7.47;;
14076;SDS011;7114;51.100;13.998;2024-03-23T05:57:40;15.48;;;7.22;;
14076;SDS011;7114;51.100;13.998;2024-03-23T06:00:07;16.57;;;7.30;;
14076;SDS011;7114;51.100;13.998;2024-03-23T06:02:40;17.77;;;7.45;;
14076;SDS011;7114;51.100;13.998;2024-03-23T06:05:10;17.13;;;7.88;;
14076;SDS011;7114;51.100;13.998;2024-03-23T06:07:36;18.38;;;8.13;;
14076;SDS011;7114;51.100;13.998;2024-03-23T06:10:02;18.25;;;8.00;;
14076;SDS011;7114;51.100;13.998;2024-03-23T06:12:28;19.40;;;8.13;;
14076;SDS011;7114;51.100;13.998;2024-03-23T06:14:54;18.65;;;8.35;;
14076;SDS011;7114;51.100;13.998;2024-03-23T06:17:20;20.50;;;9.20;;
14076;SDS011;7114;51.100;13.998;2024-03-23T06:19:46;19.50;;;8.57;;
14076;SDS011;7114;51.100;13.998;2024-03-23T06:22:13;18.92;;;8.75;;
14076;SDS011;7114;51.100;13.998;2024-03-23T06:24:39;20.88;;;8.60;;
14076;SDS011;7114;51.100;13.998;2024-03-23T06:27:05;22.30;;;8.93;;
14076;SDS011;7114;51.100;13.998;2024-03-23T06:29:31;20.85;;;9.30;;
14076;SDS011;7114;51.100;13.998;2024-03-23T06:31:57;21.43;;;8.93;;
14076;SDS011;7114;51.100;13.998;2024-03-23T06:34:23;21.60;;;9.45;;
14076;SDS011;7114;51.100;13.998;2024-03-23T06:36:49;23.10;;;9.93;;
14076;SDS011;7114;51.100;13.998;2024-03-23T06:39:17;22.48;;;9.70;;
14076;SDS011;7114;51.100;13.998;2024-03-23T06:41:42;21.67;;;8.88;;
14076;SDS011;7114;51.100;13.998;2024-03-23T06:44:09;21.80;;;9.20;;
14076;SDS011;7114;51.100;13.998;2024-03-23T06:46:34;21.87;;;9.47;;
14076;SDS011;7114;51.100;13.998;2024-03-23T06:49:00;22.83;;;9.52;;
14076;SDS011;7114;51.100;13.998;2024-03-23T06:51:26;22.87;;;9.27;;
14076;SDS011;7114;51.100;13.998;2024-03-23T06:53:52;23.02;;;9.70;;
14076;SDS011;7114;51.100;13.998;2024-03-23T06:56:19;22.57;;;9.67;;
14076;SDS011;7114;51.100;13.998;2024-03-23T06:58:46;22.63;;;9.75;;
14076;SDS011;7114;51.100;13.998;2024-03-23T07:01:12;23.10;;;9.20;;
14076;SDS011;7114;51.100;13.998;2024-03-23T07:03:38;21.77;;;9.55;;
14076;SDS011;7114;51.100;13.998;2024-03-23T07:06:03;22.37;;;9.70;;
14076;SDS011;7114;51.100;13.998;2024-03-23T07:08:30;21.48;;;8.82;;
14076;SDS011;7114;51.100;13.998;2024-03-23T07:10:55;22.67;;;9.20;;
14076;SDS011;7114;51.100;13.998;2024-03-23T07:13:23;22.98;;;9.18;;
14076;SDS011;7114;51.100;13.998;2024-03-23T07:15:52;21.77;;;9.47;;
14076;SDS011;7114;51.100;13.998;2024-03-23T07:18:20;22.63;;;10.02;;
14076;SDS011;7114;51.100;13.998;2024-03-23T07:20:51;23.23;;;9.53;;
14076;SDS011;7114;51.100;13.998;2024-03-23T07:23:18;21.05;;;9.48;;
14076;SDS011;7114;51.100;13.998;2024-03-23T07:25:43;20.43;;;9.30;;
14076;SDS011;7114;51.100;13.998;2024-03-23T07:28:10;23.50;;;9.30;;
14076;SDS011;7114;51.100;13.998;2024-03-23T07:30:36;19.93;;;9.33;;
14076;SDS011;7114;51.100;13.998;2024-03-23T07:33:03;20.60;;;9.48;;
14076;SDS011;7114;51.100;13.998;2024-03-23T07:35:28;22.65;;;10.23;;
14076;SDS011;7114;51.100;13.998;2024-03-23T07:37:55;21.63;;;9.93;;
14076;SDS011;7114;51.100;13.998;2024-03-23T07:40:20;22.30;;;10.48;;
14076;SDS011;7114;51.100;13.998;2024-03-23T07:42:46;23.13;;;9.80;;
14076;SDS011;7114;51.100;13.998;2024-03-23T07:45:12;22.25;;;9.60;;
14076;SDS011;7114;51.100;13.998;2024-03-23T07:47:40;20.57;;;9.27;;
14076;SDS011;7114;51.100;13.998;2024-03-23T07:50:05;21.60;;;9.60;;
14076;SDS011;7114;51.100;13.998;2024-03-23T07:52:32;19.25;;;9.45;;
14076;SDS011;7114;51.100;13.998;2024-03-23T07:54:58;21.07;;;9.67;;
14076;SDS011;7114;51.100;13.998;2024-03-23T07:57:24;23.40;;;10.10;;
14076;SDS011;7114;51.100;13.998;2024-03-23T07:59:49;20.23;;;9.50;;
14076;SDS011;7114;51.100;13.998;2024-03-23T08:02:17;22.05;;;9.68;;
14076;SDS011;7114;51.100;13.998;2024-03-23T08:04:43;20.83;;;9.23;;
14076;SDS011;7114;51.100;13.998;2024-03-23T08:07:10;20.13;;;9.10;;
14076;SDS011;7114;51.100;13.998;2024-03-23T08:09:35;19.70;;;8.70;;
14076;SDS011;7114;51.100;13.998;2024-03-23T08:12:02;18.77;;;8.57;;
14076;SDS011;7114;51.100;13.998;2024-03-23T08:14:27;19.57;;;9.40;;
14076;SDS011;7114;51.100;13.998;2024-03-23T08:16:54;20.27;;;9.23;;
14076;SDS011;7114;51.100;13.998;2024-03-23T08:19:20;18.75;;;8.88;;
14076;SDS011;7114;51.100;13.998;2024-03-23T08:21:47;18.90;;;9.60;;
14076;SDS011;7114;51.100;13.998;2024-03-23T08:24:15;20.95;;;9.23;;
14076;SDS011;7114;51.100;13.998;2024-03-23T08:26:41;19.03;;;9.80;;
14076;SDS011;7114;51.100;13.998;2024-03-23T08:29:07;20.83;;;9.30;;
14076;SDS011;7114;51.100;13.998;2024-03-23T08:31:32;19.50;;;9.47;;
14076;SDS011;7114;51.100;13.998;2024-03-23T08:33:59;18.48;;;9.25;;
14076;SDS011;7114;51.100;13.998;2024-03-23T08:36:24;18.07;;;8.97;;
14076;SDS011;7114;51.100;13.998;2024-03-23T08:38:52;19.13;;;9.45;;
14076;SDS011;7114;51.100;13.998;2024-03-23T08:41:19;19.30;;;9.25;;
14076;SDS011;7114;51.100;13.998;2024-03-23T08:43:45;19.77;;;9.27;;
14076;SDS011;7114;51.100;13.998;2024-03-23T08:46:11;17.93;;;8.60;;
14076;SDS011;7114;51.100;13.998;2024-03-23T08:48:38;20.67;;;9.13;;
14076;SDS011;7114;51.100;13.998;2024-03-23T08:51:04;16.53;;;8.20;;
14076;SDS011;7114;51.100;13.998;2024-03-23T08:53:32;16.02;;;7.78;;
14076;SDS011;7114;51.100;13.998;2024-03-23T08:55:59;21.02;;;8.90;;
14076;SDS011;7114;51.100;13.998;2024-03-23T08:58:26;17.67;;;8.60;;
14076;SDS011;7114;51.100;13.998;2024-03-23T09:00:52;17.10;;;8.07;;
14076;SDS011;7114;51.100;13.998;2024-03-23T09:03:21;16.10;;;7.90;;
14076;SDS011;7114;51.100;13.998;2024-03-23T09:05:46;16.15;;;8.07;;
14076;SDS011;7114;51.100;13.998;2024-03-23T09:08:13;16.53;;;7.60;;
14076;SDS011;7114;51.100;13.998;2024-03-23T09:10:38;17.40;;;7.68;;
14076;SDS011;7114;51.100;13.998;2024-03-23T09:13:06;16.90;;;7.40;;
14076;SDS011;7114;51.100;13.998;2024-03-23T09:15:32;13.82;;;7.20;;
14076;SDS011;7114;51.100;13.998;2024-03-23T09:17:59;15.50;;;7.72;;
14076;SDS011;7114;51.100;13.998;2024-03-23T09:20:25;13.57;;;6.40;;
14076;SDS011;7114;51.100;13.998;2024-03-23T09:22:51;14.07;;;6.47;;
14076;SDS011;7114;51.100;13.998;2024-03-23T09:25:16;13.93;;;6.67;;
14076;SDS011;7114;51.100;13.998;2024-03-23T09:27:44;12.38;;;6.18;;
14076;SDS011;7114;51.100;13.998;2024-03-23T09:30:12;13.48;;;6.40;;
14076;SDS011;7114;51.100;13.998;2024-03-23T09:32:39;13.50;;;6.53;;
14076;SDS011;7114;51.100;13.998;2024-03-23T09:35:05;13.63;;;6.57;;
14076;SDS011;7114;51.100;13.998;2024-03-23T09:37:31;15.95;;;6.72;;
14076;SDS011;7114;51.100;13.998;2024-03-23T09:39:57;12.93;;;6.43;;
14076;SDS011;7114;51.100;13.998;2024-03-23T09:42:23;18.42;;;7.90;;
14076;SDS011;7114;51.100;13.998;2024-03-23T09:44:49;15.65;;;7.43;;
14076;SDS011;7114;51.100;13.998;2024-03-23T09:47:18;16.27;;;7.73;;
14076;SDS011;7114;51.100;13.998;2024-03-23T09:49:44;16.35;;;8.00;;
14076;SDS011;7114;51.100;13.998;2024-03-23T09:52:11;16.92;;;7.72;;
14076;SDS011;7114;51.100;13.998;2024-03-23T09:54:36;17.47;;;8.43;;
14076;SDS011;7114;51.100;13.998;2024-03-23T09:57:03;18.95;;;9.23;;
14076;SDS011;7114;51.100;13.998;2024-03-23T09:59:29;17.80;;;9.55;;
14076;SDS011;7114;51.100;13.998;2024-03-23T10:01:55;21.23;;;9.27;;
14076;SDS011;7114;51.100;13.998;2024-03-23T10:04:36;19.13;;;8.90;;
14076;SDS011;7114;51.100;13.998;2024-03-23T10:07:10;17.17;;;8.50;;
14076;SDS011;7114;51.100;13.998;2024-03-23T10:09:36;21.15;;;8.70;;
14076;SDS011;7114;51.100;13.998;2024-03-23T10:12:07;16.85;;;6.90;;
14076;SDS011;7114;51.100;13.998;2024-03-23T10:14:34;15.70;;;5.37;;
14076;SDS011;7114;51.100;13.998;2024-03-23T10:17:11;13.15;;;4.28;;
14076;SDS011;7114;51.100;13.998;2024-03-23T10:19:40;8.32;;;3.15;;
14076;SDS011;7114;51.100;13.998;2024-03-23T10:22:07;8.45;;;2.72;;
14076;SDS011;7114;51.100;13.998;2024-03-23T10:24:34;8.02;;;2.10;;
14076;SDS011;7114;51.100;13.998;2024-03-23T10:27:00;6.67;;;1.17;;
14076;SDS011;7114;51.100;13.998;2024-03-23T10:29:25;5.25;;;0.80;;
14076;SDS011;7114;51.100;13.998;2024-03-23T10:31:53;4.82;;;0.60;;
14076;SDS011;7114;51.100;13.998;2024-03-23T10:34:24;5.93;;;0.60;;
14076;SDS011;7114;51.100;13.998;2024-03-23T10:36:53;6.95;;;1.40;;
14076;SDS011;7114;51.100;13.998;2024-03-23T10:39:19;4.80;;;1.03;;
14076;SDS011;7114;51.100;13.998;2024-03-23T10:41:46;3.95;;;0.65;;
14076;SDS011;7114;51.100;13.998;2024-03-23T10:44:14;4.90;;;0.90;;
14076;SDS011;7114;51.100;13.998;2024-03-23T10:46:40;4.78;;;0.70;;
14076;SDS011;7114;51.100;13.998;2024-03-23T10:49:06;3.90;;;0.50;;
14076;SDS011;7114;51.100;13.998;2024-03-23T10:51:32;4.32;;;0.50;;
14076;SDS011;7114;51.100;13.998;2024-03-23T10:53:59;3.37;;;0.40;;
14076;SDS011;7114;51.100;13.998;2024-03-23T10:56:26;3.42;;;0.40;;
14076;SDS011;7114;51.100;13.998;2024-03-23T10:58:54;3.65;;;0.30;;
14076;SDS011;7114;51.100;13.998;2024-03-23T11:01:20;2.63;;;0.30;;
14076;SDS011;7114;51.100;13.998;2024-03-23T11:03:46;3.10;;;0.30;;
14076;SDS011;7114;51.100;13.998;2024-03-23T11:06:34;2.13;;;0.30;;
14076;SDS011;7114;51.100;13.998;2024-03-23T11:09:01;2.70;;;0.20;;
14076;SDS011;7114;51.100;13.998;2024-03-23T11:11:28;4.32;;;0.57;;
14076;SDS011;7114;51.100;13.998;2024-03-23T11:13:56;4.47;;;0.50;;
14076;SDS011;7114;51.100;13.998;2024-03-23T11:16:23;4.22;;;0.52;;
14076;SDS011;7114;51.100;13.998;2024-03-23T11:18:52;3.43;;;0.30;;
14076;SDS011;7114;51.100;13.998;2024-03-23T11:24:21;2.47;;;0.30;;
14076;SDS011;7114;51.100;13.998;2024-03-23T11:26:48;1.73;;;0.20;;
14076;SDS011;7114;51.100;13.998;2024-03-23T11:29:14;2.35;;;0.20;;
14076;SDS011;7114;51.100;13.998;2024-03-23T11:31:45;2.60;;;0.30;;
14076;SDS011;7114;51.100;13.998;2024-03-23T11:34:11;1.77;;;0.20;;
14076;SDS011;7114;51.100;13.998;2024-03-23T11:36:38;3.83;;;0.40;;
14076;SDS011;7114;51.100;13.998;2024-03-23T11:39:11;4.50;;;0.50;;
14076;SDS011;7114;51.100;13.998;2024-03-23T11:41:46;5.28;;;0.75;;
14076;SDS011;7114;51.100;13.998;2024-03-23T11:44:15;3.90;;;0.57;;
14076;SDS011;7114;51.100;13.998;2024-03-23T11:46:42;3.60;;;0.40;;
14076;SDS011;7114;51.100;13.998;2024-03-23T11:49:19;8.03;;;0.63;;
14076;SDS011;7114;51.100;13.998;2024-03-23T11:51:46;4.80;;;0.63;;
14076;SDS011;7114;51.100;13.998;2024-03-23T11:54:12;4.30;;;0.57;;
14076;SDS011;7114;51.100;13.998;2024-03-23T11:56:38;3.95;;;0.60;;
14076;SDS011;7114;51.100;13.998;2024-03-23T11:59:05;3.07;;;0.50;;
14076;SDS011;7114;51.100;13.998;2024-03-23T12:01:32;3.08;;;0.40;;
14076;SDS011;7114;51.100;13.998;2024-03-23T12:03:58;4.30;;;0.40;;
14076;SDS011;7114;51.100;13.998;2024-03-23T12:06:24;3.13;;;0.40;;
14076;SDS011;7114;51.100;13.998;2024-03-23T12:08:50;3.13;;;0.35;;
14076;SDS011;7114;51.100;13.998;2024-03-23T12:11:17;2.63;;;0.32;;
14076;SDS011;7114;51.100;13.998;2024-03-23T12:13:43;2.60;;;0.40;;
14076;SDS011;7114;51.100;13.998;2024-03-23T12:16:13;3.70;;;0.40;;
14076;SDS011;7114;51.100;13.998;2024-03-23T12:18:39;3.03;;;0.30;;
14076;SDS011;7114;51.100;13.998;2024-03-23T12:21:07;2.20;;;0.30;;
14076;SDS011;7114;51.100;13.998;2024-03-23T12:23:33;4.43;;;0.33;;
14076;SDS011;7114;51.100;13.998;2024-03-23T12:25:59;1.77;;;0.25;;
14076;SDS011;7114;51.100;13.998;2024-03-23T12:28:24;3.30;;;0.37;;
14076;SDS011;7114;51.100;13.998;2024-03-23T12:30:51;3.92;;;0.40;;
14076;SDS011;7114;51.100;13.998;2024-03-23T12:33:18;2.63;;;0.30;;
14076;SDS011;7114;51.100;13.998;2024-03-23T12:35:44;3.72;;;0.55;;
14076;SDS011;7114;51.100;13.998;2024-03-23T12:38:10;5.67;;;0.87;;
14076;SDS011;7114;51.100;13.998;2024-03-23T12:40:36;6.18;;;0.93;;
14076;SDS011;7114;51.100;13.998;2024-03-23T12:43:03;4.93;;;0.70;;
14076;SDS011;7114;51.100;13.998;2024-03-23T12:45:28;3.15;;;0.40;;
14076;SDS011;7114;51.100;13.998;2024-03-23T12:47:55;2.97;;;0.40;;
14076;SDS011;7114;51.100;13.998;2024-03-23T12:50:21;3.10;;;0.40;;
14076;SDS011;7114;51.100;13.998;2024-03-23T12:52:48;3.65;;;0.40;;
14076;SDS011;7114;51.100;13.998;2024-03-23T12:55:14;3.50;;;0.50;;
14076;SDS011;7114;51.100;13.998;2024-03-23T12:57:40;3.20;;;0.40;;
14076;SDS011;7114;51.100;13.998;2024-03-23T13:00:06;2.43;;;0.30;;
14076;SDS011;7114;51.100;13.998;2024-03-23T13:02:35;2.78;;;0.30;;
14076;SDS011;7114;51.100;13.998;2024-03-23T13:05:00;3.23;;;0.30;;
14076;SDS011;7114;51.100;13.998;2024-03-23T13:07:28;2.47;;;0.25;;
14076;SDS011;7114;51.100;13.998;2024-03-23T13:09:54;2.92;;;0.38;;
14076;SDS011;7114;51.100;13.998;2024-03-23T13:12:21;3.55;;;0.30;;
14076;SDS011;7114;51.100;13.998;2024-03-23T13:14:47;3.20;;;0.30;;
14076;SDS011;7114;51.100;13.998;2024-03-23T13:17:13;3.08;;;0.40;;
14076;SDS011;7114;51.100;13.998;2024-03-23T13:19:39;3.80;;;0.57;;
14076;SDS011;7114;51.100;13.998;2024-03-23T13:22:06;4.30;;;0.60;;
14076;SDS011;7114;51.100;13.998;2024-03-23T13:24:33;5.05;;;0.95;;
14076;SDS011;7114;51.100;13.998;2024-03-23T13:26:59;5.00;;;1.08;;
14076;SDS011;7114;51.100;13.998;2024-03-23T13:29:25;5.27;;;1.00;;
14076;SDS011;7114;51.100;13.998;2024-03-23T13:31:51;5.57;;;1.13;;
14076;SDS011;7114;51.100;13.998;2024-03-23T13:34:17;5.63;;;1.40;;
14076;SDS011;7114;51.100;13.998;2024-03-23T13:36:44;7.07;;;1.88;;
14076;SDS011;7114;51.100;13.998;2024-03-23T13:39:10;8.35;;;2.20;;
14076;SDS011;7114;51.100;13.998;2024-03-23T13:41:41;8.25;;;2.50;;
14076;SDS011;7114;51.100;13.998;2024-03-23T13:44:08;9.63;;;2.88;;
14076;SDS011;7114;51.100;13.998;2024-03-23T13:46:35;6.50;;;1.80;;
14076;SDS011;7114;51.100;13.998;2024-03-23T13:49:01;8.30;;;2.47;;
14076;SDS011;7114;51.100;13.998;2024-03-23T13:51:27;8.33;;;2.33;;
14076;SDS011;7114;51.100;13.998;2024-03-23T13:53:53;9.32;;;2.42;;
14076;SDS011;7114;51.100;13.998;2024-03-23T13:56:21;9.50;;;2.50;;
14076;SDS011;7114;51.100;13.998;2024-03-23T13:58:48;8.60;;;2.70;;
14076;SDS011;7114;51.100;13.998;2024-03-23T14:01:14;9.13;;;2.60;;
14076;SDS011;7114;51.100;13.998;2024-03-23T14:03:40;9.30;;;3.37;;
14076;SDS011;7114;51.100;13.998;2024-03-23T14:06:07;8.88;;;3.47;;
14076;SDS011;7114;51.100;13.998;2024-03-23T14:08:33;10.40;;;3.53;;
14076;SDS011;7114;51.100;13.998;2024-03-23T14:11:01;9.68;;;3.83;;
14076;SDS011;7114;51.100;13.998;2024-03-23T14:13:28;11.05;;;3.95;;
14076;SDS011;7114;51.100;13.998;2024-03-23T14:15:56;9.40;;;3.07;;
14076;SDS011;7114;51.100;13.998;2024-03-23T14:18:21;8.77;;;2.80;;
14076;SDS011;7114;51.100;13.998;2024-03-23T14:20:48;8.50;;;2.70;;
14076;SDS011;7114;51.100;13.998;2024-03-23T14:23:14;7.87;;;2.13;;
14076;SDS011;7114;51.100;13.998;2024-03-23T14:25:40;7.05;;;1.90;;
14076;SDS011;7114;51.100;13.998;2024-03-23T14:28:06;8.20;;;1.93;;
14076;SDS011;7114;51.100;13.998;2024-03-23T14:30:38;7.47;;;1.40;;
14076;SDS011;7114;51.100;13.998;2024-03-23T14:33:05;10.03;;;1.90;;
14076;SDS011;7114;51.100;13.998;2024-03-23T14:35:31;10.45;;;2.92;;
14076;SDS011;7114;51.100;13.998;2024-03-23T14:37:58;7.70;;;2.10;;
14076;SDS011;7114;51.100;13.998;2024-03-23T14:40:24;10.27;;;2.60;;
14076;SDS011;7114;51.100;13.998;2024-03-23T14:42:51;7.80;;;2.30;;
14076;SDS011;7114;51.100;13.998;2024-03-23T14:45:18;6.83;;;2.03;;
14076;SDS011;7114;51.100;13.998;2024-03-23T14:47:43;6.10;;;1.83;;
14076;SDS011;7114;51.100;13.998;2024-03-23T14:50:11;6.47;;;1.50;;
14076;SDS011;7114;51.100;13.998;2024-03-23T14:52:40;6.22;;;1.48;;
14076;SDS011;7114;51.100;13.998;2024-03-23T14:55:06;9.50;;;1.60;;
14076;SDS011;7114;51.100;13.998;2024-03-23T14:57:33;8.07;;;1.70;;
14076;SDS011;7114;51.100;13.998;2024-03-23T15:00:00;8.10;;;1.58;;
14076;SDS011;7114;51.100;13.998;2024-03-23T15:02:25;9.23;;;1.27;;
14076;SDS011;7114;51.100;13.998;2024-03-23T15:04:52;7.03;;;1.40;;
14076;SDS011;7114;51.100;13.998;2024-03-23T15:07:20;6.63;;;1.50;;
14076;SDS011;7114;51.100;13.998;2024-03-23T15:09:46;8.88;;;1.27;;
14076;SDS011;7114;51.100;13.998;2024-03-23T15:12:12;6.63;;;1.20;;
14076;SDS011;7114;51.100;13.998;2024-03-23T15:14:38;7.18;;;1.40;;
14076;SDS011;7114;51.100;13.998;2024-03-23T15:17:04;7.93;;;1.20;;
14076;SDS011;7114;51.100;13.998;2024-03-23T15:19:32;6.50;;;1.45;;
14076;SDS011;7114;51.100;13.998;2024-03-23T15:21:58;8.67;;;1.57;;
14076;SDS011;7114;51.100;13.998;2024-03-23T15:24:25;8.98;;;1.70;;
14076;SDS011;7114;51.100;13.998;2024-03-23T15:26:51;8.15;;;1.83;;
14076;SDS011;7114;51.100;13.998;2024-03-23T15:29:17;10.88;;;2.00;;
14076;SDS011;7114;51.100;13.998;2024-03-23T15:31:42;8.77;;;1.87;;